Time;durP1;ratioP1;P1;durP2;ratioP2;P2;SDS_P1;SDS_P2;PMS_P1;PMS_P2;Temp;Humidity;BMP_temperature;BMP_pressure;BME280_temperature;BME280_humidity;BME280_pressure;Samples;Min_cycle;Max_cycle;Signal;HPM_P1;HPM_P2
2022/09/09 00:02:15;;;;;;;3.70;2.10;;;;;;;21.01;57.22;93270.72;4840233;29;20034;-89
2022/09/09 00:04:40;;;;;;;2.28;1.70;;;;;;;21.02;57.12;93263.19;4827070;29;20113;-89
2022/09/09 00:07:13;;;;;;;2.35;1.90;;;;;;;21.01;57.28;93261.72;4805867;29;20120;-89
2022/09/09 00:09:46;;;;;;;3.30;2.28;;;;;;;21.02;57.24;93263.19;4806476;29;20110;-87
2022/09/09 00:12:14;;;;;;;2.53;1.75;;;;;;;21.00;57.49;93260.97;4854842;29;20037;-88
2022/09/09 00:15:05;;;;;;;3.13;1.80;;;;;;;21.01;57.12;93258.97;4818341;29;20121;-91
2022/09/09 00:17:36;;;;;;;2.00;1.70;;;;;;;21.02;57.37;93254.97;4832717;29;20042;-92
2022/09/09 00:20:03;;;;;;;;;;;;;;;21.06;57.26;93255.38;4806359;29;20133;-91
2022/09/09 00:22:30;;;;;;;1.90;1.60;;;;;;;21.02;57.15;93257.72;4825304;29;20306;-90
2022/09/09 00:25:01;;;;;;;2.53;1.90;;;;;;;20.99;57.38;93254.03;4825503;29;20049;-92
2022/09/09 00:27:32;;;;;;;2.40;1.75;;;;;;;21.00;57.17;93249.28;4825880;29;20045;-88
2022/09/09 00:30:11;;;;;;;;;;;;;;;21.04;57.03;93246.91;4819180;29;20042;-89
2022/09/09 00:32:37;;;;;;;2.03;1.65;;;;;;;21.00;57.19;93255.50;4821947;29;19925;-88
2022/09/09 00:35:22;;;;;;;2.25;1.67;;;;;;;20.99;57.20;93254.03;4806295;29;20042;-89
2022/09/09 00:37:48;;;;;;;2.63;1.67;;;;;;;21.00;57.23;93252.03;4806965;29;20064;-88
2022/09/09 00:40:23;;;;;;;2.22;1.90;;;;;;;21.00;57.12;93249.28;4813536;29;20497;-90
2022/09/09 00:42:49;;;;;;;2.58;1.60;;;;;;;20.98;57.07;93254.56;4813329;29;20502;-89
2022/09/09 00:45:14;;;;;;;3.50;1.85;;;;;;;20.99;57.01;93245.06;4820884;29;20129;-90
2022/09/09 00:47:49;;;;;;;2.15;1.58;;;;;;;21.00;57.07;93246.53;4837377;29;20057;-91
2022/09/09 00:50:17;;;;;;;2.08;1.58;;;;;;;20.99;57.25;93254.03;4810435;29;20501;-90
2022/09/09 00:53:11;;;;;;;1.95;1.52;;;;;;;21.00;56.98;93252.03;4855050;29;20086;-91
2022/09/09 00:55:53;;;;;;;2.22;1.63;;;;;;;21.00;57.17;93250.00;4843790;29;20402;-89
2022/09/09 00:58:18;;;;;;;2.05;1.45;;;;;;;20.99;57.37;93256.78;4838660;29;20138;-89
2022/09/09 01:00:45;;;;;;;2.60;1.60;;;;;;;21.00;57.10;93250.00;4823809;29;20037;-92
2022/09/09 01:03:32;;;;;;;2.38;1.58;;;;;;;21.00;57.19;93257.53;4803320;29;20038;-92
2022/09/09 01:06:03;;;;;;;3.10;1.77;;;;;;;21.03;57.25;93253.69;4836074;29;20081;-89
2022/09/09 01:08:57;;;;;;;2.47;1.50;;;;;;;21.00;57.13;93255.50;4830700;29;20053;-91
2022/09/09 01:11:27;;;;;;;2.42;1.40;;;;;;;20.99;57.07;93258.78;4849514;29;20584;-88
2022/09/09 01:14:00;;;;;;;2.38;1.85;;;;;;;20.98;57.01;93260.06;4840356;29;20128;-93
2022/09/09 01:16:25;;;;;;;2.35;1.35;;;;;;;21.00;57.15;93250.00;4839286;29;20142;-92
2022/09/09 01:18:53;;;;;;;3.30;1.88;;;;;;;20.98;57.21;93251.81;4828170;29;20442;-87
2022/09/09 01:21:35;;;;;;;1.75;1.50;;;;;;;20.98;57.02;93263.56;4833322;29;20097;-93
2022/09/09 01:24:27;;;;;;;2.22;1.98;;;;;;;20.99;57.06;93251.28;4843506;29;20049;-93
2022/09/09 01:26:54;;;;;;;3.00;1.25;;;;;;;20.98;56.99;93254.56;4843517;29;20045;-89
2022/09/09 01:29:21;;;;;;;2.63;1.67;;;;;;;20.97;57.18;93253.81;4842427;29;20119;-91
2022/09/09 01:31:56;;;;;;;2.90;1.50;;;;;;;20.98;56.89;93246.31;4852126;29;20037;-90
2022/09/09 01:34:22;;;;;;;1.48;1.27;;;;;;;20.99;57.05;93253.28;4857356;29;20045;-90
2022/09/09 01:37:10;;;;;;;2.67;1.50;;;;;;;20.97;56.95;93262.06;4857836;29;20065;-94
2022/09/09 01:39:36;;;;;;;2.60;1.45;;;;;;;20.97;56.94;93259.31;4853058;29;20097;-88
2022/09/09 01:42:02;;;;;;;2.42;1.50;;;;;;;20.96;57.14;93249.59;4852890;29;20473;-89
2022/09/09 01:44:28;;;;;;;2.17;1.27;;;;;;;20.96;56.76;93246.13;4847109;29;20050;-92
2022/09/09 01:46:53;;;;;;;2.28;1.35;;;;;;;20.96;56.74;93246.84;4854686;29;20177;-90
2022/09/09 01:49:20;;;;;;;2.58;1.15;;;;;;;20.96;56.90;93248.88;4830834;29;20070;-89
2022/09/09 01:51:47;;;;;;;2.13;1.30;;;;;;;20.98;56.68;93244.31;4832846;29;20039;-88
2022/09/09 01:54:13;;;;;;;1.40;1.25;;;;;;;20.98;56.76;93249.06;4860861;29;20049;-94
2022/09/09 01:56:53;;;;;;;1.25;1.10;;;;;;;20.97;56.68;93250.34;4861832;29;20044;-92
2022/09/09 01:59:22;;;;;;;1.73;1.38;;;;;;;20.96;56.89;93251.59;4877678;29;20129;-94
2022/09/09 02:02:10;;;;;;;2.05;1.20;;;;;;;20.97;56.75;93244.84;4885781;29;20065;-94
2022/09/09 02:04:37;;;;;;;1.38;1.25;;;;;;;20.96;56.94;93244.09;4843033;29;20038;-93
2022/09/09 02:07:03;;;;;;;1.42;1.23;;;;;;;20.97;56.56;93247.59;4853326;29;20062;-88
2022/09/09 02:09:29;;;;;;;1.27;0.80;;;;;;;20.96;56.88;93249.59;4861380;29;20378;-94
2022/09/09 02:12:00;;;;;;;1.92;1.25;;;;;;;20.97;56.88;93256.56;4861158;29;20052;-93
2022/09/09 02:14:27;;;;;;;;;;;;;;;21.01;56.74;93264.47;4861791;29;20104;-93
2022/09/09 02:17:09;;;;;;;1.50;1.00;;;;;;;20.97;57.02;93255.84;4874231;29;19979;-89
2022/09/09 02:19:37;;;;;;;1.63;1.20;;;;;;;20.95;56.78;93256.38;4854151;29;20046;-93
2022/09/09 02:22:02;;;;;;;2.40;1.05;;;;;;;20.94;57.09;93257.63;4846516;29;20090;-93
2022/09/09 02:24:29;;;;;;;2.47;1.42;;;;;;;20.93;56.89;93261.66;4860738;29;20448;-92
2022/09/09 02:26:55;;;;;;;2.17;1.15;;;;;;;20.95;56.92;93250.13;4861077;29;20045;-92
2022/09/09 02:29:29;;;;;;;1.38;1.08;;;;;;;20.96;56.91;93246.13;4860615;29;20045;-88
2022/09/09 02:31:56;;;;;;;1.17;0.85;;;;;;;20.94;56.53;93241.16;4845058;29;20070;-90
2022/09/09 02:34:21;;;;;;;1.13;0.90;;;;;;;20.95;56.45;93242.63;4857502;29;20488;-92
2022/09/09 02:36:47;;;;;;;2.40;1.30;;;;;;;20.98;56.76;93238.06;4842081;29;20042;-93
2022/09/09 02:39:12;;;;;;;1.10;1.00;;;;;;;20.97;56.50;93240.09;4857066;29;20041;-92
2022/09/09 02:41:39;;;;;;;1.65;1.30;;;;;;;20.98;56.48;93246.31;4842305;29;20489;-92
2022/09/09 02:44:08;;;;;;;1.75;1.45;;;;;;;20.97;56.79;93239.34;4870885;29;20039;-92
2022/09/09 02:46:40;;;;;;;1.20;0.93;;;;;;;20.96;56.63;93240.63;4876556;29;20040;-90
2022/09/09 02:49:26;;;;;;;1.10;0.90;;;;;;;20.96;56.84;93238.59;4891476;29;20420;-89
2022/09/09 02:52:05;;;;;;;1.13;0.98;;;;;;;20.94;56.84;93238.41;4875638;29;20492;-89
2022/09/09 02:54:35;;;;;;;2.05;0.98;;;;;;;20.95;56.72;93233.63;4826500;29;20045;-88
2022/09/09 02:57:04;;;;;;;1.85;1.10;;;;;;;20.95;56.49;93242.63;4842363;29;20078;-88
2022/09/09 02:59:30;;;;;;;2.00;0.95;;;;;;;20.93;56.67;93242.41;4856829;29;20033;-89
2022/09/09 03:01:55;;;;;;;2.53;1.10;;;;;;;20.95;56.72;93239.13;4832305;29;20045;-90
2022/09/09 03:04:21;;;;;;;1.60;1.10;;;;;;;20.95;56.50;93252.88;4855949;29;20049;-89
2022/09/09 03:06:46;;;;;;;1.45;1.00;;;;;;;20.95;56.51;93248.13;4853744;29;20038;-92
2022/09/09 03:09:12;;;;;;;1.27;1.00;;;;;;;20.95;56.61;93248.13;4853593;29;20046;-90
2022/09/09 03:11:38;;;;;;;1.40;0.80;;;;;;;20.95;56.68;93239.13;4873047;29;20089;-89
2022/09/09 03:14:04;;;;;;;1.77;1.20;;;;;;;20.94;56.54;93243.16;4843788;29;20553;-91
2022/09/09 03:16:29;;;;;;;1.58;1.00;;;;;;;20.94;56.59;93249.38;4823669;29;20126;-92
2022/09/09 03:18:55;;;;;;;1.48;1.08;;;;;;;20.94;56.52;93248.66;4838330;29;20038;-87
2022/09/09 03:21:20;;;;;;;1.25;0.90;;;;;;;20.95;56.45;93255.63;4838459;29;20053;-93
2022/09/09 03:23:46;;;;;;;1.42;0.88;;;;;;;20.95;56.55;93250.88;4833660;29;20389;-90
2022/09/09 03:26:11;;;;;;;1.63;1.23;;;;;;;20.96;56.71;93251.59;4859664;29;20053;-92
2022/09/09 03:28:37;;;;;;;1.02;0.90;;;;;;;20.94;56.46;93259.66;4860497;29;20033;-89
2022/09/09 03:31:03;;;;;;;1.58;1.00;;;;;;;20.94;56.49;93252.13;4858967;29;20368;-89
2022/09/09 03:33:29;;;;;;;1.23;0.88;;;;;;;20.94;56.06;93254.16;4871094;29;20080;-89
2022/09/09 03:35:56;;;;;;;1.23;0.90;;;;;;;20.92;56.52;93246.44;4856913;29;20045;-91
2022/09/09 03:38:24;;;;;;;1.38;0.93;;;;;;;20.93;56.29;93242.41;4869182;29;20045;-90
2022/09/09 03:40:51;;;;;;;1.15;0.93;;;;;;;20.93;56.27;93234.16;4867945;29;20052;-88
2022/09/09 03:43:16;;;;;;;1.55;0.77;;;;;;;20.94;56.64;93237.66;4852016;29;20527;-88
2022/09/09 03:45:47;;;;;;;0.80;0.70;;;;;;;20.92;56.71;93237.44;4856293;29;20037;-91
2022/09/09 03:48:12;;;;;;;2.03;1.30;;;;;;;20.92;56.59;93232.69;4856742;29;20069;-90
2022/09/09 03:50:38;;;;;;;1.23;0.80;;;;;;;20.93;56.44;93236.19;4856620;29;20029;-90
2022/09/09 03:53:03;;;;;;;1.45;0.90;;;;;;;20.92;56.31;93231.94;4855682;29;20403;-91
2022/09/09 03:55:28;;;;;;;0.90;0.77;;;;;;;20.91;56.60;93220.22;4844200;29;20541;-89
2022/09/09 03:57:54;;;;;;;2.38;1.30;;;;;;;20.90;56.61;93224.25;4825101;29;20060;-93
2022/09/09 04:00:19;;;;;;;1.13;0.73;;;;;;;20.93;56.45;93241.69;4855947;29;20053;-89
2022/09/09 04:02:45;;;;;;;1.90;1.20;;;;;;;20.91;56.72;93244.94;4840359;29;20042;-92
2022/09/09 04:05:11;;;;;;;0.98;0.80;;;;;;;20.93;56.48;93253.41;4842739;29;20117;-89
2022/09/09 04:07:36;;;;;;;1.23;0.75;;;;;;;20.92;56.59;93240.19;4851333;29;20057;-89
2022/09/09 04:10:02;;;;;;;1.52;0.70;;;;;;;20.95;56.24;93244.63;4840344;29;20044;-93
2022/09/09 04:12:27;;;;;;;1.17;0.90;;;;;;;20.94;56.54;93243.16;4871407;29;20045;-87
2022/09/09 04:14:52;;;;;;;0.98;0.70;;;;;;;20.92;56.50;93240.19;4872891;29;20453;-92
2022/09/09 04:17:18;;;;;;;1.08;0.82;;;;;;;20.91;56.55;93238.72;4868066;29;20133;-90
2022/09/09 04:19:43;;;;;;;1.25;0.80;;;;;;;20.93;56.46;93231.44;4852546;29;20360;-90
2022/09/09 04:22:09;;;;;;;0.93;0.80;;;;;;;20.91;56.40;93236.72;4836786;29;20094;-89
2022/09/09 04:24:35;;;;;;;1.25;0.80;;;;;;;20.91;56.34;93246.97;4840052;29;20049;-89
2022/09/09 04:27:00;;;;;;;1.38;0.90;;;;;;;20.91;56.54;93244.94;4855674;29;20040;-92
2022/09/09 04:29:26;;;;;;;1.35;0.95;;;;;;;20.91;56.22;93244.94;4855223;29;20044;-89
2022/09/09 04:31:51;;;;;;;2.13;1.10;;;;;;;20.92;56.47;93229.22;4855290;29;20535;-89
2022/09/09 04:34:17;;;;;;;1.10;0.80;;;;;;;20.91;56.38;93228.47;4839747;29;20545;-90
2022/09/09 04:36:42;;;;;;;0.98;0.80;;;;;;;20.91;56.37;93230.47;4839997;29;20057;-89
2022/09/09 04:39:08;;;;;;;1.30;0.90;;;;;;;20.95;56.30;93231.63;4842080;29;20041;-91
2022/09/09 04:41:33;;;;;;;1.48;0.85;;;;;;;20.94;56.38;93234.91;4843278;29;20032;-93
2022/09/09 04:44:00;;;;;;;1.95;0.88;;;;;;;20.91;56.16;93231.22;4857274;29;20098;-88
2022/09/09 04:46:26;;;;;;;0.73;0.70;;;;;;;20.91;56.39;93231.22;4855245;29;20052;-94
2022/09/09 04:48:52;;;;;;;1.33;0.70;;;;;;;20.94;56.29;93238.41;4856410;29;20041;-93
2022/09/09 04:51:18;;;;;;;0.95;0.68;;;;;;;20.95;56.14;93237.13;4838602;29;20052;-93
2022/09/09 04:53:43;;;;;;;1.00;0.70;;;;;;;20.99;56.14;93232.06;4838587;29;20398;-89
2022/09/09 04:56:11;;;;;;;0.68;0.60;;;;;;;20.92;56.60;93238.19;4852759;29;20451;-88
2022/09/09 04:58:36;;;;;;;0.68;0.68;;;;;;;20.94;56.43;93237.66;4838097;29;20463;-91
2022/09/09 05:01:06;;;;;;;0.93;0.50;;;;;;;20.98;56.04;93243.56;4853883;29;20079;-90
2022/09/09 05:03:32;;;;;;;0.85;0.75;;;;;;;20.97;56.30;93236.59;4823161;29;20080;-88
2022/09/09 05:06:09;;;;;;;0.70;0.52;;;;;;;20.97;56.28;93248.34;4853195;29;20410;-87
2022/09/09 05:08:36;;;;;;;1.02;0.60;;;;;;;20.99;56.21;93240.31;4843610;29;20046;-89
2022/09/09 05:11:01;;;;;;;0.68;0.60;;;;;;;20.98;56.01;93230.56;4854387;29;20448;-88
2022/09/09 05:13:27;;;;;;;0.50;0.50;;;;;;;21.03;56.37;93243.44;4853204;29;20041;-90
2022/09/09 05:15:53;;;;;;;0.77;0.70;;;;;;;21.00;56.33;93247.25;4851122;29;20044;-89
2022/09/09 05:18:19;;;;;;;0.82;0.52;;;;;;;21.01;56.10;93237.72;4843796;29;20114;-90
2022/09/09 05:20:44;;;;;;;0.60;0.40;;;;;;;21.04;56.13;93246.91;4836108;29;20049;-89
2022/09/09 05:23:13;;;;;;;1.38;0.63;;;;;;;21.01;56.01;93250.72;4851446;29;20412;-89
2022/09/09 05:25:38;;;;;;;0.50;0.40;;;;;;;21.04;55.92;93260.66;4837477;29;20038;-88
2022/09/09 05:28:04;;;;;;;1.33;0.80;;;;;;;21.00;56.35;93252.75;4838393;29;20049;-87
2022/09/09 05:30:30;;;;;;;0.93;0.60;;;;;;;21.05;55.88;93257.38;4854403;29;20048;-90
2022/09/09 05:32:56;;;;;;;1.55;0.50;;;;;;;21.02;55.95;93255.69;4867936;29;20092;-92
2022/09/09 05:35:22;;;;;;;1.02;0.40;;;;;;;21.01;56.22;93253.47;4872406;29;20048;-89
2022/09/09 05:37:48;;;;;;;1.30;0.70;;;;;;;21.02;55.89;93255.69;4858213;29;20049;-90
2022/09/09 05:40:14;;;;;;;3.22;0.52;;;;;;;21.05;56.04;93257.38;4856792;29;20033;-90
2022/09/09 05:42:40;;;;;;;1.67;0.70;;;;;;;21.04;55.67;93261.41;4842034;29;20069;-88
2022/09/09 05:45:07;;;;;;;2.20;0.43;;;;;;;21.02;56.03;93257.72;4834876;29;20053;-91
2022/09/09 05:47:33;;;;;;;5.43;0.70;;;;;;;21.01;55.82;93256.22;4850844;29;20041;-87
2022/09/09 05:49:58;;;;;;;9.30;1.05;;;;;;;21.03;55.94;93250.94;4850857;29;20065;-91
2022/09/09 05:52:27;;;;;;;1.67;0.75;;;;;;;21.01;55.89;93245.97;4835559;29;20074;-91
2022/09/09 05:54:54;;;;;;;6.85;0.80;;;;;;;21.03;56.05;93245.44;4820216;29;20049;-90
2022/09/09 05:57:19;;;;;;;4.55;0.57;;;;;;;21.02;55.86;93250.19;4849097;29;20053;-92
2022/09/09 05:59:45;;;;;;;1.80;0.52;;;;;;;21.04;55.69;93249.66;4847409;29;20045;-91
2022/09/09 06:02:12;;;;;;;1.08;0.52;;;;;;;21.04;56.04;93246.91;4855461;29;20560;-90
2022/09/09 06:04:37;;;;;;;2.22;0.60;;;;;;;21.06;55.87;93241.63;4838861;29;20041;-89
2022/09/09 06:07:03;;;;;;;0.45;0.40;;;;;;;21.04;55.89;93247.66;4837512;29;20097;-90
2022/09/09 06:09:30;;;;;;;2.40;0.98;;;;;;;21.08;55.44;93233.59;4834777;29;20541;-90
2022/09/09 06:11:55;;;;;;;3.33;0.60;;;;;;;21.07;55.35;93237.63;4845302;29;20051;-91
2022/09/09 06:14:21;;;;;;;1.23;0.45;;;;;;;21.10;55.70;93242.78;4856603;29;20045;-90
2022/09/09 06:16:49;;;;;;;3.03;0.70;;;;;;;21.16;55.46;93237.19;4856191;29;20125;-92
2022/09/09 06:19:14;;;;;;;20.35;1.67;;;;;;;21.17;55.13;93244.16;4849671;29;20037;-92
2022/09/09 06:21:40;;;;;;;7.88;1.00;;;;;;;21.20;55.20;93240.38;4836991;29;20045;-91
2022/09/09 06:24:07;;;;;;;2.67;0.60;;;;;;;21.19;54.99;93238.88;4835775;29;20042;-92
2022/09/09 06:26:35;;;;;;;8.45;0.63;;;;;;;21.20;54.84;93248.63;4821719;29;20052;-91
2022/09/09 06:29:02;;;;;;;10.27;1.80;;;;;;;21.20;55.02;93241.13;4839709;29;20046;-92
2022/09/09 06:31:29;;;;;;;23.23;4.07;;;;;;;21.20;55.23;93238.38;4872281;29;20063;-90
2022/09/09 06:33:57;;;;;;;14.23;4.55;;;;;;;21.18;55.38;93231.91;4857109;29;20088;-91
2022/09/09 06:36:33;;;;;;;14.13;4.07;;;;;;;21.20;55.25;93232.13;4841352;29;20214;-90
2022/09/09 06:38:58;;;;;;;14.18;3.40;;;;;;;21.16;55.31;93240.66;4860688;29;20178;-90
2022/09/09 06:41:26;;;;;;;15.60;3.08;;;;;;;21.16;55.15;93242.69;4859917;29;20563;-89
2022/09/09 06:43:52;;;;;;;13.70;3.25;;;;;;;21.17;55.52;93246.91;4856797;29;20527;-90
2022/09/09 06:46:22;;;;;;;8.70;2.70;;;;;;;21.13;55.46;93244.47;4838563;29;20050;-91
2022/09/09 06:48:47;;;;;;;11.95;3.00;;;;;;;21.09;55.44;93252.31;4832205;29;20098;-90
2022/09/09 06:51:14;;;;;;;11.13;2.40;;;;;;;21.14;55.62;93248.72;4866783;29;20097;-95
2022/09/09 06:53:41;;;;;;;7.80;2.20;;;;;;;21.11;55.49;93249.78;4888443;29;20069;-92
2022/09/09 06:56:13;;;;;;;8.85;2.00;;;;;;;21.12;55.56;93258.75;4880836;29;20049;-91
2022/09/09 06:58:45;;;;;;;4.90;1.58;;;;;;;21.14;55.49;93254.22;4882783;29;20101;-92
2022/09/09 07:01:20;;;;;;;4.65;1.50;;;;;;;21.11;55.42;93255.28;4857125;29;20395;-93
2022/09/09 07:03:50;;;;;;;15.68;1.63;;;;;;;21.10;55.05;93253.06;4840902;29;20061;-93
2022/09/09 07:06:23;;;;;;;4.75;1.35;;;;;;;21.10;55.32;93251.03;4803881;29;20049;-92
2022/09/09 07:08:50;;;;;;;10.55;1.92;;;;;;;21.10;55.23;93244.81;4828859;29;20042;-92
2022/09/09 07:11:16;;;;;;;7.10;1.50;;;;;;;21.07;55.47;93252.09;4820126;29;20062;-91
2022/09/09 07:13:42;;;;;;;6.97;1.63;;;;;;;21.09;55.46;93257.81;4829196;29;20057;-91
2022/09/09 07:16:14;;;;;;;3.97;1.52;;;;;;;21.06;55.28;93258.88;4814118;29;20047;-93
2022/09/09 07:18:57;;;;;;;2.33;1.20;;;;;;;21.08;55.44;93266.59;4825630;29;20055;-91
2022/09/09 07:21:32;;;;;;;3.92;1.10;;;;;;;21.10;55.46;93262.03;4902389;23;20132;-91
2022/09/09 07:24:10;;;;;;;3.08;1.10;;;;;;;21.09;55.24;93254.31;4921876;29;20029;-91
2022/09/09 07:26:54;;;;;;;2.90;1.40;;;;;;;21.10;55.32;93253.78;4914993;23;20137;-92
2022/09/09 07:29:20;;;;;;;2.47;1.10;;;;;;;21.11;55.31;93257.28;4990579;23;20233;-92
2022/09/09 07:31:50;;;;;;;4.38;0.90;;;;;;;21.08;55.39;93261.81;4860200;29;20041;-91
2022/09/09 07:34:30;;;;;;;4.88;1.20;;;;;;;21.09;55.37;93257.06;4893260;23;20079;-92
2022/09/09 07:37:00;;;;;;;2.92;0.90;;;;;;;21.08;55.26;93256.31;4875628;29;20032;-91
2022/09/09 07:39:27;;;;;;;1.40;0.90;;;;;;;21.09;55.37;93254.31;4913341;23;20124;-91
2022/09/09 07:41:56;;;;;;;1.23;0.70;;;;;;;21.10;55.12;93262.03;4921871;23;20061;-92
2022/09/09 07:44:22;;;;;;;3.22;0.90;;;;;;;21.09;55.32;93257.81;4951843;23;20045;-92
2022/09/09 07:46:49;;;;;;;2.88;0.98;;;;;;;21.11;55.24;93260.03;4868054;29;20041;-89
2022/09/09 07:49:14;;;;;;;2.30;0.73;;;;;;;21.09;55.21;93260.56;4825259;29;20040;-90
2022/09/09 07:51:45;;;;;;;5.85;0.90;;;;;;;21.09;55.31;93282.53;4857235;29;20048;-90
2022/09/09 07:54:11;;;;;;;2.88;0.90;;;;;;;21.09;55.39;93271.56;4857558;29;20124;-90
2022/09/09 07:56:37;;;;;;;1.50;0.90;;;;;;;21.09;55.30;93273.56;4821592;29;20441;-92
2022/09/09 07:59:06;;;;;;;10.00;1.25;;;;;;;21.08;55.19;93278.31;4793156;29;20050;-94
2022/09/09 08:01:33;;;;;;;3.20;1.00;;;;;;;21.11;55.54;93279.25;4842284;29;20508;-93
2022/09/09 08:04:01;;;;;;;2.60;0.90;;;;;;;21.10;55.26;93286.03;4817032;29;20062;-92
2022/09/09 08:06:33;;;;;;;2.83;0.90;;;;;;;21.09;55.42;93290.06;4823275;29;20048;-90
2022/09/09 08:08:58;;;;;;;5.03;0.95;;;;;;;21.09;55.31;93292.81;4822445;29;20137;-93
2022/09/09 08:11:25;;;;;;;4.63;1.08;;;;;;;21.07;55.51;93285.09;4809806;29;20531;-94
2022/09/09 08:13:51;;;;;;;9.32;1.13;;;;;;;21.09;55.38;93298.28;4809366;29;20128;-89
2022/09/09 08:16:21;;;;;;;6.88;1.30;;;;;;;21.10;55.39;93297.03;4807256;29;20458;-87
2022/09/09 08:18:47;;;;;;;1.17;0.77;;;;;;;21.08;55.25;93307.81;4806920;29;20353;-90
2022/09/09 08:21:15;;;;;;;3.85;1.38;;;;;;;21.09;55.32;93310.03;4810750;29;20049;-92
2022/09/09 08:23:41;;;;;;;5.05;0.70;;;;;;;21.08;55.01;93303.06;4805222;29;20042;-90
2022/09/09 08:26:10;;;;;;;1.95;0.60;;;;;;;21.09;55.55;93301.03;4820339;29;20053;-89
2022/09/09 08:28:36;;;;;;;2.28;0.90;;;;;;;21.11;55.44;93307.50;4835087;29;20046;-86
2022/09/09 08:31:06;;;;;;;0.95;0.70;;;;;;;21.10;55.44;93302.53;4847508;29;20109;-87
2022/09/09 08:33:33;;;;;;;;;;;;;;;21.11;55.56;93304.00;4824799;29;20493;-92
2022/09/09 08:35:58;;;;;;;0.82;0.60;;;;;;;21.08;55.57;93307.81;4885582;29;19931;-88
2022/09/09 08:38:24;;;;;;;3.13;0.70;;;;;;;21.08;55.62;93305.81;4869844;29;20042;-86
2022/09/09 08:40:50;;;;;;;1.65;0.82;;;;;;;21.07;55.69;93301.56;4854970;29;20034;-90
2022/09/09 08:43:17;;;;;;;0.70;0.50;;;;;;;21.09;55.58;93307.28;4824383;29;20417;-87
2022/09/09 08:45:50;;;;;;;1.48;0.70;;;;;;;21.10;55.59;93303.25;4870066;29;20174;-87
2022/09/09 08:48:44;;;;;;;0.80;0.65;;;;;;;21.11;55.58;93309.50;4854297;29;20102;-90
2022/09/09 08:51:09;;;;;;;2.70;0.60;;;;;;;21.12;55.56;93310.97;4870079;29;20517;-88
2022/09/09 08:53:39;;;;;;;0.85;0.60;;;;;;;21.09;55.50;93299.03;4824780;29;20045;-86
2022/09/09 08:56:11;;;;;;;1.33;0.75;;;;;;;21.12;55.58;93302.72;4851361;29;20054;-87
2022/09/09 08:58:43;;;;;;;0.93;0.50;;;;;;;21.11;55.57;93298.50;4851566;29;20042;-91
2022/09/09 09:01:09;;;;;;;1.17;0.70;;;;;;;21.09;55.74;93301.78;4856937;29;20049;-92
2022/09/09 09:04:03;;;;;;;11.30;0.82;;;;;;;21.08;55.56;93305.81;4880780;29;20050;-90
2022/09/09 09:06:38;;;;;;;2.35;0.90;;;;;;;21.06;55.86;93308.34;4834914;29;20033;-86
2022/09/09 09:09:14;;;;;;;2.13;0.88;;;;;;;21.07;55.74;93307.06;4865877;29;20125;-88
2022/09/09 09:11:42;;;;;;;1.23;0.60;;;;;;;21.10;55.72;93308.03;4846379;29;20029;-89
2022/09/09 09:14:23;;;;;;;3.08;0.55;;;;;;;21.07;55.64;93312.56;4839178;29;20045;-86
2022/09/09 09:16:59;;;;;;;1.73;0.55;;;;;;;21.07;55.96;93311.81;4854226;29;20042;-87
2022/09/09 09:19:26;;;;;;;2.17;0.98;;;;;;;21.09;55.59;93315.53;4838782;29;20041;-86
2022/09/09 09:22:03;;;;;;;3.88;1.05;;;;;;;21.08;55.71;93318.81;4838498;29;20497;-88
2022/09/09 09:24:47;;;;;;;4.35;1.33;;;;;;;21.10;55.80;93311.50;4839058;29;20096;-91
2022/09/09 09:27:14;;;;;;;14.68;2.22;;;;;;;21.10;55.58;93311.50;4855200;29;20048;-86
2022/09/09 09:29:40;;;;;;;20.60;3.42;;;;;;;21.12;55.71;93313.72;4838984;29;20038;-87
2022/09/09 09:32:05;;;;;;;15.98;3.47;;;;;;;21.09;55.95;93310.03;4838517;29;20046;-89
2022/09/09 09:34:30;;;;;;;20.83;3.53;;;;;;;21.11;55.82;93313.00;4809470;29;20064;-86
2022/09/09 09:36:56;;;;;;;18.20;3.35;;;;;;;21.11;55.68;93306.75;4805821;29;20533;-86
2022/09/09 09:39:26;;;;;;;14.70;3.20;;;;;;;21.08;55.78;93319.53;4809045;29;20541;-94
2022/09/09 09:41:52;;;;;;;16.02;4.40;;;;;;;21.10;55.84;93324.50;4853807;29;20116;-88
2022/09/09 09:44:28;;;;;;;18.33;5.05;;;;;;;21.11;55.84;93323.25;4854055;29;20413;-89
2022/09/09 09:47:04;;;;;;;18.05;5.45;;;;;;;21.12;55.82;93325.47;4823550;29;20072;-90
2022/09/09 09:49:29;;;;;;;16.15;5.13;;;;;;;21.10;55.75;93336.25;4849619;29;20121;-88
2022/09/09 09:52:00;;;;;;;19.10;5.20;;;;;;;21.12;55.80;93339.22;4825253;29;20560;-86
2022/09/09 09:54:28;;;;;;;17.27;4.38;;;;;;;21.13;55.71;93337.94;4854251;29;20052;-88
2022/09/09 09:56:54;;;;;;;10.13;5.13;;;;;;;21.12;55.89;93343.97;4832009;29;20046;-87
2022/09/09 09:59:20;;;;;;;17.15;4.85;;;;;;;21.11;55.77;93345.22;4805266;29;20053;-90
2022/09/09 10:01:45;;;;;;;11.15;3.83;;;;;;;21.09;56.00;93351.25;4836458;29;20038;-87
2022/09/09 10:04:20;;;;;;;13.00;4.40;;;;;;;21.10;56.02;93349.25;4815167;29;20046;-86
2022/09/09 10:06:45;;;;;;;9.68;4.35;;;;;;;21.11;56.31;93347.97;4820478;29;20046;-87
2022/09/09 10:09:28;;;;;;;11.45;3.92;;;;;;;21.11;56.00;93348.72;4806497;29;20049;-86
2022/09/09 10:11:56;;;;;;;9.02;3.97;;;;;;;21.11;56.05;93350.72;4853341;29;20422;-85
2022/09/09 10:14:30;;;;;;;11.93;3.78;;;;;;;21.13;55.90;93346.19;4856536;29;20057;-86
2022/09/09 10:17:33;;;;;;;10.88;3.10;;;;;;;21.10;56.16;93352.00;4856043;29;20050;-88
2022/09/09 10:20:19;;;;;;;15.48;3.45;;;;;;;21.13;55.86;93351.69;4869601;29;20038;-90
2022/09/09 10:22:47;;;;;;;10.27;3.20;;;;;;;21.15;55.91;93351.16;4837524;29;20380;-89
2022/09/09 10:25:37;;;;;;;6.13;2.50;;;;;;;21.11;56.13;93337.00;4842019;29;20505;-85
2022/09/09 10:28:17;;;;;;;6.82;2.67;;;;;;;21.11;56.12;93334.25;4843691;29;20094;-87
2022/09/09 10:30:49;;;;;;;4.80;2.75;;;;;;;21.09;56.02;93334.03;4888386;29;20048;-85
2022/09/09 10:33:20;;;;;;;9.75;2.47;;;;;;;21.09;55.96;93328.53;4885757;29;20038;-91
2022/09/09 10:36:02;;;;;;;6.28;2.80;;;;;;;21.13;55.82;93326.22;4824281;29;20042;-85
2022/09/09 10:38:41;;;;;;;4.63;2.50;;;;;;;21.08;56.04;93322.28;4824872;29;20199;-86
2022/09/09 10:41:16;;;;;;;6.45;2.63;;;;;;;21.10;56.17;93330.75;4825696;29;20445;-88
2022/09/09 10:44:14;;;;;;;5.63;2.50;;;;;;;21.09;56.09;93321.03;4856885;29;20049;-86
2022/09/09 10:46:42;;;;;;;6.28;2.58;;;;;;;21.12;55.93;93319.22;4841432;29;20041;-87
2022/09/09 10:49:23;;;;;;;5.40;2.17;;;;;;;21.09;56.03;93317.53;4880194;29;20052;-86
2022/09/09 10:51:51;;;;;;;5.75;1.77;;;;;;;21.08;56.03;93324.31;4873897;29;20074;-90
2022/09/09 10:54:53;;;;;;;6.20;2.10;;;;;;;21.09;56.02;93328.53;4859304;29;20136;-95
2022/09/09 10:57:21;;;;;;;6.78;2.28;;;;;;;21.11;56.08;93332.22;4836999;29;20046;-92
2022/09/09 10:59:48;;;;;;;6.63;2.28;;;;;;;21.12;55.95;93327.47;4858050;29;20049;-93
2022/09/09 11:02:22;;;;;;;4.20;1.70;;;;;;;21.11;55.93;93309.50;4857499;29;20042;-89
2022/09/09 11:04:52;;;;;;;4.60;1.70;;;;;;;21.12;56.25;93316.47;4847002;29;20050;-89
2022/09/09 11:07:22;;;;;;;;;;;;;;;21.11;56.12;93312.25;4870939;29;20058;-93
2022/09/09 11:09:50;;;;;;;7.38;1.83;;;;;;;21.09;56.27;93317.53;4873983;29;20248;-92
2022/09/09 11:12:19;;;;;;;4.60;1.77;;;;;;;21.10;56.11;93316.28;4873172;29;20046;-91
2022/09/09 11:14:49;;;;;;;2.22;1.80;;;;;;;21.09;56.17;93314.78;4874456;29;20058;-91
2022/09/09 11:17:20;;;;;;;1.88;1.42;;;;;;;21.09;56.20;93314.78;4822291;29;20038;-86
2022/09/09 11:19:45;;;;;;;2.65;1.70;;;;;;;21.14;55.99;93313.94;4835843;29;20049;-87
2022/09/09 11:22:27;;;;;;;4.95;1.70;;;;;;;21.08;56.13;93319.53;4836479;29;20038;-87
2022/09/09 11:24:56;;;;;;;3.53;1.90;;;;;;;21.14;56.16;93322.94;4837033;29;20093;-89
2022/09/09 11:27:26;;;;;;;2.38;1.50;;;;;;;21.10;56.22;93313.53;4874539;29;20038;-91
2022/09/09 11:30:04;;;;;;;7.30;2.45;;;;;;;21.12;55.98;93310.97;4858778;29;20121;-87
2022/09/09 11:33:01;;;;;;;7.20;1.92;;;;;;;21.12;56.12;93311.72;4872732;29;20124;-86
2022/09/09 11:35:45;;;;;;;2.75;1.70;;;;;;;21.14;56.05;93303.69;4888776;29;20034;-86
2022/09/09 11:38:20;;;;;;;6.53;2.15;;;;;;;21.13;56.08;93306.97;4873477;29;20098;-87
2022/09/09 11:40:46;;;;;;;3.25;2.00;;;;;;;21.13;55.93;93302.22;4860295;29;20082;-92
2022/09/09 11:43:17;;;;;;;7.55;2.17;;;;;;;21.15;56.05;93313.41;4858545;29;20038;-89
2022/09/09 11:45:43;;;;;;;6.13;1.83;;;;;;;21.15;56.03;93312.66;4841164;29;20049;-89
2022/09/09 11:48:28;;;;;;;4.03;1.88;;;;;;;21.13;56.02;93301.47;4810215;29;20429;-86